Time;durP1;ratioP1;P1;durP2;ratioP2;P2;SDS_P1;SDS_P2;PMS_P1;PMS_P2;Temp;Humidity;BMP_temperature;BMP_pressure;BME280_temperature;BME280_humidity;BME280_pressure;Samples;Min_cycle;Max_cycle;Signal;HPM_P1;HPM_P2
2021/10/02 00:31:06;;;;;;;;;12.00;12.00;;;;;;;;5047894;28;8863;-78
2021/10/02 00:35:31;;;;;;;;;9.25;9.25;;;;;;;;5056642;28;8860;-76
2021/10/02 00:41:05;;;;;;;;;7.00;7.00;;;;;;;;5049444;28;8880;-77
2021/10/02 00:41:37;;;;;;;;;10.50;10.25;;;;;;;;5063535;28;8941;-77
2021/10/02 00:46:53;;;;;;;;;10.25;10.25;;;;;;;;5064198;28;8836;-76
2021/10/02 00:49:20;;;;;;;;;10.00;10.00;;;;;;;;5065425;28;8959;-76
2021/10/02 00:51:47;;;;;;;;;11.25;8.00;;;;;;;;5065292;28;8929;-76
2021/10/02 00:54:15;;;;;;;;;12.25;9.75;;;;;;;;5049210;28;8870;-79
2021/10/02 00:56:42;;;;;;;;;11.75;9.00;;;;;;;;5052871;28;8871;-80
2021/10/02 00:59:10;;;;;;;;;7.25;7.25;;;;;;;;5065785;28;8868;-76
2021/10/02 01:01:44;;;;;;;;;5.75;5.75;;;;;;;;5064336;28;8801;-78
2021/10/02 01:04:20;;;;;;;;;12.25;11.00;;;;;;;;5065012;28;8860;-76
2021/10/02 01:06:54;;;;;;;;;5.75;5.75;;;;;;;;5065516;28;8868;-77
2021/10/02 01:09:37;;;;;;;;;14.00;12.25;;;;;;;;5039886;28;8872;-76
2021/10/02 01:12:13;;;;;;;;;8.75;6.25;;;;;;;;5047519;28;8864;-76
2021/10/02 01:14:47;;;;;;;;;8.75;8.75;;;;;;;;5046722;28;8857;-77
2021/10/02 01:17:20;;;;;;;;;7.25;5.75;;;;;;;;5046060;28;8864;-77
2021/10/02 01:19:59;;;;;;;;;5.50;5.50;;;;;;;;5065076;28;8880;-79
2021/10/02 01:22:50;;;;;;;;;6.00;6.00;;;;;;;;5063480;28;8856;-77
2021/10/02 01:25:31;;;;;;;;;5.75;5.75;;;;;;;;5065410;28;8906;-78
2021/10/02 01:28:03;;;;;;;;;7.25;7.25;;;;;;;;5063960;28;8864;-78
2021/10/02 01:30:49;;;;;;;;;4.00;4.00;;;;;;;;5063006;28;8776;-79
2021/10/02 01:33:24;;;;;;;;;6.75;6.75;;;;;;;;5053549;28;8863;-77
2021/10/02 01:35:58;;;;;;;;;5.25;5.25;;;;;;;;5041694;28;8898;-77
2021/10/02 01:49:28;;;;;;;;;4.00;4.00;;;;;;;;5062000;28;8982;-76
2021/10/02 01:51:58;;;;;;;;;6.00;4.00;;;;;;;;5063304;28;9698;-78
2021/10/02 01:54:26;;;;;;;;;4.25;4.25;;;;;;;;5064436;28;8933;-75
2021/10/02 01:56:55;;;;;;;;;5.25;4.75;;;;;;;;5060417;28;8876;-79
2021/10/02 01:59:26;;;;;;;;;4.75;4.50;;;;;;;;5044149;28;8833;-76
2021/10/02 02:01:54;;;;;;;;;5.00;5.00;;;;;;;;5058712;28;8870;-79
2021/10/02 02:04:22;;;;;;;;;4.75;3.00;;;;;;;;5063899;28;8856;-76
2021/10/02 02:06:52;;;;;;;;;4.25;4.00;;;;;;;;5061321;28;8965;-76
2021/10/02 02:09:20;;;;;;;;;4.25;4.25;;;;;;;;5046184;28;8880;-77
2021/10/02 02:11:47;;;;;;;;;4.00;4.00;;;;;;;;5058820;28;8963;-78
2021/10/02 02:14:16;;;;;;;;;5.00;5.00;;;;;;;;5062454;28;8872;-75
2021/10/02 02:16:47;;;;;;;;;3.75;3.75;;;;;;;;5062763;28;8896;-77
2021/10/02 02:19:16;;;;;;;;;3.00;3.00;;;;;;;;5060949;28;8902;-78
2021/10/02 02:21:46;;;;;;;;;4.00;4.00;;;;;;;;5063735;28;8872;-77
2021/10/02 02:24:13;;;;;;;;;5.00;5.00;;;;;;;;5028603;28;8864;-75
2021/10/02 02:26:42;;;;;;;;;3.50;3.50;;;;;;;;5063251;28;8892;-77
2021/10/02 02:29:09;;;;;;;;;6.00;4.25;;;;;;;;5062396;28;8892;-76
2021/10/02 02:31:38;;;;;;;;;6.25;6.25;;;;;;;;5061457;28;8837;-76
2021/10/02 02:34:06;;;;;;;;;7.00;5.00;;;;;;;;5063197;28;8894;-75
2021/10/02 02:36:34;;;;;;;;;7.50;6.00;;;;;;;;5061882;28;8892;-76
2021/10/02 02:39:01;;;;;;;;;8.25;6.00;;;;;;;;5064001;28;8864;-76
2021/10/02 02:41:28;;;;;;;;;4.00;4.00;;;;;;;;5062764;28;8864;-75
2021/10/02 02:43:56;;;;;;;;;7.25;7.25;;;;;;;;5063073;28;8871;-75
2021/10/02 02:46:26;;;;;;;;;9.00;6.50;;;;;;;;5042071;28;8842;-75
2021/10/02 02:48:59;;;;;;;;;7.25;7.25;;;;;;;;5062960;28;8860;-75
2021/10/02 02:51:34;;;;;;;;;11.75;10.00;;;;;;;;5062962;28;8955;-76
2021/10/02 02:54:11;;;;;;;;;8.75;8.75;;;;;;;;5044373;28;9508;-76
2021/10/02 02:56:42;;;;;;;;;9.50;8.25;;;;;;;;5063011;28;8860;-76
2021/10/02 02:59:14;;;;;;;;;10.50;10.50;;;;;;;;5052440;28;8910;-76
2021/10/02 03:01:42;;;;;;;;;9.00;9.00;;;;;;;;5061421;28;8834;-80
2021/10/02 03:04:13;;;;;;;;;11.00;11.00;;;;;;;;5058143;28;9723;-76
2021/10/02 03:06:45;;;;;;;;;7.25;7.25;;;;;;;;5061369;28;8871;-75
2021/10/02 03:09:13;;;;;;;;;10.00;9.00;;;;;;;;5062974;28;8879;-76
2021/10/02 03:11:41;;;;;;;;;9.25;9.25;;;;;;;;5065708;28;8892;-76
2021/10/02 03:14:09;;;;;;;;;11.50;10.00;;;;;;;;5066686;28;8886;-77
2021/10/02 03:16:37;;;;;;;;;11.50;11.00;;;;;;;;5066258;28;8872;-76
2021/10/02 03:19:07;;;;;;;;;13.75;11.25;;;;;;;;5047488;28;8860;-77
2021/10/02 03:21:38;;;;;;;;;12.50;11.75;;;;;;;;5049427;28;8844;-78
2021/10/02 03:24:08;;;;;;;;;10.00;10.00;;;;;;;;5064746;28;8872;-79
2021/10/02 03:26:39;;;;;;;;;17.00;13.00;;;;;;;;5066058;28;8882;-76
2021/10/02 03:29:07;;;;;;;;;13.75;12.75;;;;;;;;5045704;28;8892;-77
2021/10/02 03:31:35;;;;;;;;;14.25;13.25;;;;;;;;5064980;28;8821;-78
2021/10/02 03:34:02;;;;;;;;;15.00;15.00;;;;;;;;5065520;28;8871;-76
2021/10/02 03:36:30;;;;;;;;;18.00;16.25;;;;;;;;5065816;28;8875;-77
2021/10/02 03:38:57;;;;;;;;;18.50;16.50;;;;;;;;5065357;28;8852;-76
2021/10/02 03:41:26;;;;;;;;;18.75;18.75;;;;;;;;5064020;28;9649;-76
2021/10/02 03:43:53;;;;;;;;;19.50;17.00;;;;;;;;5066316;28;8974;-76
2021/10/02 03:46:21;;;;;;;;;17.25;15.25;;;;;;;;5064946;28;8883;-76
2021/10/02 03:48:48;;;;;;;;;17.75;17.75;;;;;;;;5066080;28;9638;-75
2021/10/02 03:51:17;;;;;;;;;19.75;19.75;;;;;;;;5063813;28;8864;-75
2021/10/02 03:53:44;;;;;;;;;21.75;21.75;;;;;;;;5058002;28;8860;-75
2021/10/02 03:56:13;;;;;;;;;25.50;20.00;;;;;;;;5047470;28;8852;-75
2021/10/02 03:58:41;;;;;;;;;21.25;18.00;;;;;;;;5065386;28;8886;-75
2021/10/02 04:01:10;;;;;;;;;19.50;18.00;;;;;;;;5063893;28;9586;-76
2021/10/02 04:03:37;;;;;;;;;25.75;19.75;;;;;;;;5063936;28;8896;-79
2021/10/02 04:06:05;;;;;;;;;20.00;18.50;;;;;;;;5066947;28;8872;-85
2021/10/02 04:08:32;;;;;;;;;18.75;17.00;;;;;;;;5059308;28;8971;-74
2021/10/02 04:11:03;;;;;;;;;16.50;16.25;;;;;;;;5064447;28;9560;-76
2021/10/02 04:13:31;;;;;;;;;20.75;18.75;;;;;;;;5060923;28;8866;-78
2021/10/02 04:15:59;;;;;;;;;19.25;19.25;;;;;;;;5064480;28;8874;-76
2021/10/02 04:18:27;;;;;;;;;15.50;15.50;;;;;;;;5066230;28;8856;-77
2021/10/02 04:20:54;;;;;;;;;21.00;21.00;;;;;;;;5064562;28;8890;-79
2021/10/02 04:23:22;;;;;;;;;17.50;17.50;;;;;;;;5065885;28;8882;-77
2021/10/02 04:25:49;;;;;;;;;19.00;17.25;;;;;;;;5046767;28;8857;-76
2021/10/02 04:28:16;;;;;;;;;20.00;19.00;;;;;;;;5065711;28;9594;-78
2021/10/02 04:30:44;;;;;;;;;23.25;20.00;;;;;;;;5064995;28;8850;-77
2021/10/02 04:33:13;;;;;;;;;16.50;16.50;;;;;;;;5060043;28;9649;-76
2021/10/02 04:35:40;;;;;;;;;20.25;19.50;;;;;;;;5062855;28;9634;-79
2021/10/02 04:38:07;;;;;;;;;18.75;16.25;;;;;;;;5064108;28;8880;-76
2021/10/02 04:40:35;;;;;;;;;18.00;18.00;;;;;;;;5065650;28;8884;-76
2021/10/02 04:43:02;;;;;;;;;20.25;16.75;;;;;;;;5061380;28;8999;-76
2021/10/02 04:45:30;;;;;;;;;17.00;13.25;;;;;;;;5065480;28;8856;-77
2021/10/02 04:47:57;;;;;;;;;21.00;19.00;;;;;;;;5065231;28;8860;-76
2021/10/02 04:50:26;;;;;;;;;20.75;18.00;;;;;;;;5064489;28;8868;-76
2021/10/02 04:52:54;;;;;;;;;22.50;19.75;;;;;;;;5065797;28;9012;-78
2021/10/02 04:55:22;;;;;;;;;22.75;19.00;;;;;;;;5063549;28;8840;-77
2021/10/02 04:57:49;;;;;;;;;19.75;19.00;;;;;;;;5064530;28;9008;-77
2021/10/02 05:00:16;;;;;;;;;22.00;20.50;;;;;;;;5061979;28;8922;-78
2021/10/02 05:02:44;;;;;;;;;22.25;20.00;;;;;;;;5046297;28;8911;-76
2021/10/02 05:05:11;;;;;;;;;19.50;19.25;;;;;;;;5065277;28;8853;-77
2021/10/02 05:07:40;;;;;;;;;20.75;18.00;;;;;;;;5064337;28;8892;-76
2021/10/02 05:10:08;;;;;;;;;19.25;16.00;;;;;;;;5064679;28;8864;-75
2021/10/02 05:12:36;;;;;;;;;21.25;21.25;;;;;;;;5043629;28;9001;-76
2021/10/02 05:15:07;;;;;;;;;17.00;17.00;;;;;;;;5069404;28;8868;-79
2021/10/02 05:17:34;;;;;;;;;19.00;19.00;;;;;;;;5061676;28;8953;-76
2021/10/02 05:20:01;;;;;;;;;23.50;20.75;;;;;;;;5064826;28;8885;-76
2021/10/02 05:22:29;;;;;;;;;23.25;21.00;;;;;;;;5064689;28;8931;-76
2021/10/02 05:24:57;;;;;;;;;20.75;19.00;;;;;;;;5064501;28;8867;-75
2021/10/02 05:27:24;;;;;;;;;25.25;22.75;;;;;;;;5065067;28;8898;-75
2021/10/02 05:29:52;;;;;;;;;24.00;23.75;;;;;;;;5062577;28;8894;-74
2021/10/02 05:32:19;;;;;;;;;30.00;24.33;;;;;;;;5063298;28;9620;-76
2021/10/02 05:34:47;;;;;;;;;23.25;23.25;;;;;;;;5062194;28;8942;-77
2021/10/02 05:37:14;;;;;;;;;21.75;21.75;;;;;;;;5064934;28;8848;-77
2021/10/02 05:39:41;;;;;;;;;26.67;24.00;;;;;;;;5063102;28;9011;-75
2021/10/02 05:42:10;;;;;;;;;28.50;23.25;;;;;;;;5063808;28;8978;-75
2021/10/02 05:44:37;;;;;;;;;26.00;22.50;;;;;;;;5062869;28;9857;-75
2021/10/02 05:47:05;;;;;;;;;18.00;18.00;;;;;;;;5062890;28;8876;-75
2021/10/02 05:49:33;;;;;;;;;19.25;19.25;;;;;;;;5046023;28;8887;-77
2021/10/02 05:52:00;;;;;;;;;25.75;24.00;;;;;;;;5062954;28;8864;-76
2021/10/02 05:54:28;;;;;;;;;19.25;17.50;;;;;;;;5045051;28;8876;-76
2021/10/02 05:56:55;;;;;;;;;22.00;22.00;;;;;;;;5043285;28;8884;-76
2021/10/02 05:59:24;;;;;;;;;23.67;23.33;;;;;;;;5063150;28;9106;-70
2021/10/02 06:01:51;;;;;;;;;21.50;21.50;;;;;;;;5058329;28;8934;-73
2021/10/02 06:04:19;;;;;;;;;25.50;23.00;;;;;;;;5042673;28;8904;-73
2021/10/02 06:06:46;;;;;;;;;17.67;17.33;;;;;;;;5057541;28;8848;-74
2021/10/02 06:09:14;;;;;;;;;20.25;20.25;;;;;;;;5040874;28;8983;-72
2021/10/02 06:11:41;;;;;;;;;20.50;16.25;;;;;;;;5059885;28;9002;-72
2021/10/02 06:14:09;;;;;;;;;24.50;24.50;;;;;;;;5060397;28;8863;-74
2021/10/02 06:16:38;;;;;;;;;24.25;22.25;;;;;;;;5059797;28;8868;-76
2021/10/02 06:19:06;;;;;;;;;23.25;21.50;;;;;;;;5057461;28;8880;-73
2021/10/02 06:21:34;;;;;;;;;21.50;21.25;;;;;;;;5058885;28;8856;-74
2021/10/02 06:24:02;;;;;;;;;21.25;19.50;;;;;;;;5062135;28;8874;-72
2021/10/02 06:26:31;;;;;;;;;26.25;22.25;;;;;;;;5059454;28;8897;-75
2021/10/02 06:28:59;;;;;;;;;27.00;25.25;;;;;;;;5058022;28;8857;-75
2021/10/02 06:31:27;;;;;;;;;23.33;23.33;;;;;;;;5057712;28;8870;-75
2021/10/02 06:33:55;;;;;;;;;27.00;19.75;;;;;;;;5046316;28;9034;-76
2021/10/02 06:36:23;;;;;;;;;19.00;18.25;;;;;;;;5061803;28;9742;-75
2021/10/02 06:38:50;;;;;;;;;24.00;20.75;;;;;;;;5063263;28;8877;-72
2021/10/02 06:41:17;;;;;;;;;21.25;19.00;;;;;;;;5064007;28;8885;-71
2021/10/02 06:43:44;;;;;;;;;15.75;12.00;;;;;;;;5062799;28;8905;-73
2021/10/02 06:46:12;;;;;;;;;18.00;18.00;;;;;;;;5063496;28;8876;-76
2021/10/02 06:48:40;;;;;;;;;20.00;19.25;;;;;;;;5062672;28;8872;-72
2021/10/02 06:51:09;;;;;;;;;18.75;18.00;;;;;;;;5062917;28;8900;-72
2021/10/02 06:53:37;;;;;;;;;20.00;19.00;;;;;;;;5062467;28;8864;-76
2021/10/02 06:56:05;;;;;;;;;19.00;17.00;;;;;;;;5063741;28;8983;-74
2021/10/02 06:58:33;;;;;;;;;18.00;16.50;;;;;;;;5063575;28;8872;-73
2021/10/02 07:01:00;;;;;;;;;20.50;19.75;;;;;;;;5061452;28;8781;-75
2021/10/02 07:03:27;;;;;;;;;12.00;12.00;;;;;;;;5063176;28;8864;-74
2021/10/02 07:05:55;;;;;;;;;19.00;19.00;;;;;;;;5061492;28;8863;-73
2021/10/02 07:08:23;;;;;;;;;16.00;16.00;;;;;;;;5062801;28;8872;-73
2021/10/02 07:10:51;;;;;;;;;14.00;12.75;;;;;;;;5062613;28;8880;-79
2021/10/02 07:13:18;;;;;;;;;19.75;19.25;;;;;;;;5063885;28;8860;-79
2021/10/02 07:15:45;;;;;;;;;15.75;15.25;;;;;;;;5062897;28;8868;-73
2021/10/02 07:18:13;;;;;;;;;19.00;14.00;;;;;;;;5062225;28;9465;-74
2021/10/02 07:20:40;;;;;;;;;21.25;18.75;;;;;;;;5063613;28;8848;-73
2021/10/02 07:23:08;;;;;;;;;17.00;16.25;;;;;;;;5062415;28;8876;-74
2021/10/02 07:25:36;;;;;;;;;14.25;12.50;;;;;;;;5063712;28;8872;-74
2021/10/02 07:28:04;;;;;;;;;17.50;17.50;;;;;;;;5062142;28;8856;-74
2021/10/02 07:30:31;;;;;;;;;21.25;20.25;;;;;;;;5062656;28;8855;-74
2021/10/02 07:32:59;;;;;;;;;17.50;16.50;;;;;;;;5062606;28;8879;-73
2021/10/02 07:35:26;;;;;;;;;15.75;13.25;;;;;;;;5063042;28;8856;-77
2021/10/02 07:37:54;;;;;;;;;9.75;9.00;;;;;;;;5063531;28;8980;-72
2021/10/02 07:40:21;;;;;;;;;13.50;13.50;;;;;;;;5063092;28;8894;-74
2021/10/02 07:42:55;;;;;;;;;12.50;12.50;;;;;;;;5063374;28;8890;-72
2021/10/02 07:45:23;;;;;;;;;14.25;11.50;;;;;;;;5043932;28;8863;-73
2021/10/02 07:47:53;;;;;;;;;11.00;11.00;;;;;;;;5028745;28;8906;-74
2021/10/02 07:50:21;;;;;;;;;10.25;10.25;;;;;;;;5063041;28;8864;-72
2021/10/02 07:52:50;;;;;;;;;11.50;10.00;;;;;;;;5062732;28;8910;-73
2021/10/02 07:55:18;;;;;;;;;9.75;9.75;;;;;;;;5063539;28;8864;-72
2021/10/02 07:57:47;;;;;;;;;10.25;10.25;;;;;;;;5064595;28;8984;-73
2021/10/02 08:00:18;;;;;;;;;8.00;8.00;;;;;;;;5066529;28;8868;-78
2021/10/02 08:02:46;;;;;;;;;8.50;8.50;;;;;;;;5065717;28;8872;-74
2021/10/02 08:05:17;;;;;;;;;8.75;6.25;;;;;;;;5066901;28;8880;-78
2021/10/02 08:07:47;;;;;;;;;5.75;5.75;;;;;;;;5066569;28;8883;-73
2021/10/02 08:10:20;;;;;;;;;5.50;5.50;;;;;;;;5066902;28;8880;-74
2021/10/02 08:12:47;;;;;;;;;6.00;6.00;;;;;;;;5064601;28;8878;-73
2021/10/02 08:15:17;;;;;;;;;7.50;7.50;;;;;;;;5065617;28;8898;-74
2021/10/02 08:17:45;;;;;;;;;4.75;4.75;;;;;;;;5066890;28;8898;-74
2021/10/02 08:20:15;;;;;;;;;4.50;1.50;;;;;;;;5065318;28;8937;-74
2021/10/02 08:22:44;;;;;;;;;4.00;4.00;;;;;;;;5066728;28;8886;-73
2021/10/02 08:25:13;;;;;;;;;6.50;4.75;;;;;;;;5066192;28;8906;-75
2021/10/02 08:27:41;;;;;;;;;2.75;2.75;;;;;;;;5066434;28;8910;-73
2021/10/02 08:30:10;;;;;;;;;2.50;2.50;;;;;;;;5065473;28;8868;-72
2021/10/02 08:32:39;;;;;;;;;3.00;3.00;;;;;;;;5047649;28;8886;-72
2021/10/02 08:35:08;;;;;;;;;4.00;4.00;;;;;;;;5066382;28;8890;-73
2021/10/02 08:37:36;;;;;;;;;3.75;3.75;;;;;;;;5065202;28;8882;-75
2021/10/02 08:40:06;;;;;;;;;3.50;3.00;;;;;;;;5066460;28;9712;-72
2021/10/02 08:42:35;;;;;;;;;4.00;3.00;;;;;;;;5065642;28;8868;-73
2021/10/02 08:45:03;;;;;;;;;2.50;2.00;;;;;;;;5065976;28;8853;-75
2021/10/02 08:47:34;;;;;;;;;4.00;4.00;;;;;;;;5066280;28;8856;-74
2021/10/02 08:50:03;;;;;;;;;2.75;2.75;;;;;;;;5065098;28;8995;-75
2021/10/02 08:52:31;;;;;;;;;2.00;2.00;;;;;;;;5066271;28;8876;-76
2021/10/02 08:54:59;;;;;;;;;2.00;2.00;;;;;;;;5065017;28;9629;-74
2021/10/02 08:57:27;;;;;;;;;1.00;1.00;;;;;;;;5066296;28;8868;-73
2021/10/02 08:59:56;;;;;;;;;2.50;2.50;;;;;;;;5065335;28;8890;-75
2021/10/02 09:02:38;;;;;;;;;3.00;3.00;;;;;;;;5046963;28;8828;-73
2021/10/02 09:05:11;;;;;;;;;4.25;4.25;;;;;;;;5066332;28;8860;-73
2021/10/02 09:07:38;;;;;;;;;3.50;3.00;;;;;;;;5042782;28;8868;-76
2021/10/02 09:10:08;;;;;;;;;3.00;3.00;;;;;;;;5048205;28;8892;-76
2021/10/02 09:12:36;;;;;;;;;3.00;3.00;;;;;;;;5064835;28;8904;-75
2021/10/02 09:15:03;;;;;;;;;3.00;3.00;;;;;;;;5065524;28;8891;-74
2021/10/02 09:17:31;;;;;;;;;3.00;3.00;;;;;;;;5063653;28;8866;-74
2021/10/02 09:19:59;;;;;;;;;5.75;3.75;;;;;;;;5060789;28;8844;-79
2021/10/02 09:22:28;;;;;;;;;4.25;3.00;;;;;;;;5060716;28;8991;-77
2021/10/02 09:24:56;;;;;;;;;2.25;2.25;;;;;;;;5060371;28;8857;-74
2021/10/02 09:27:26;;;;;;;;;3.00;2.00;;;;;;;;5061889;28;8895;-75
2021/10/02 09:29:55;;;;;;;;;3.00;2.00;;;;;;;;5061525;28;8864;-74
2021/10/02 09:32:27;;;;;;;;;3.25;2.00;;;;;;;;5061740;28;8821;-74
2021/10/02 09:34:56;;;;;;;;;3.25;3.00;;;;;;;;5059935;28;9739;-78
2021/10/02 09:37:29;;;;;;;;;6.00;3.00;;;;;;;;5060662;28;8860;-76
2021/10/02 09:40:00;;;;;;;;;3.00;2.00;;;;;;;;5062695;28;9610;-75
2021/10/02 09:42:33;;;;;;;;;3.75;2.25;;;;;;;;5063129;28;8891;-75
2021/10/02 09:45:05;;;;;;;;;2.00;2.00;;;;;;;;5064245;28;8860;-76
2021/10/02 09:47:32;;;;;;;;;2.75;1.75;;;;;;;;5062558;28;9621;-77
2021/10/02 09:49:59;;;;;;;;;2.00;2.00;;;;;;;;5064691;28;8983;-76
2021/10/02 09:52:31;;;;;;;;;2.25;2.00;;;;;;;;5062864;28;8903;-75
2021/10/02 09:54:58;;;;;;;;;6.00;1.75;;;;;;;;5063199;28;8862;-76
2021/10/02 09:57:26;;;;;;;;;2.50;2.50;;;;;;;;5063861;28;8865;-75
2021/10/02 10:00:08;;;;;;;;;1.75;1.75;;;;;;;;5067459;28;8873;-75
2021/10/02 10:02:39;;;;;;;;;3.00;1.00;;;;;;;;5062306;28;8817;-74
2021/10/02 10:05:07;;;;;;;;;2.00;2.00;;;;;;;;5063766;28;8872;-75
2021/10/02 10:07:36;;;;;;;;;3.75;2.00;;;;;;;;5061796;28;8888;-76
2021/10/02 10:10:07;;;;;;;;;3.00;3.00;;;;;;;;5047082;28;8856;-75
2021/10/02 10:12:37;;;;;;;;;3.25;3.25;;;;;;;;5045317;28;8853;-75
2021/10/02 10:15:06;;;;;;;;;3.25;3.25;;;;;;;;5061441;28;9609;-76
2021/10/02 10:17:34;;;;;;;;;3.75;3.75;;;;;;;;5060891;28;8860;-74
2021/10/02 10:20:07;;;;;;;;;1.75;1.75;;;;;;;;5062982;28;8848;-74
2021/10/02 10:22:37;;;;;;;;;2.25;2.25;;;;;;;;5060557;28;8878;-74
2021/10/02 10:25:07;;;;;;;;;2.25;2.25;;;;;;;;5058581;28;8952;-74
2021/10/02 10:27:41;;;;;;;;;7.50;4.00;;;;;;;;5061529;28;8866;-74
2021/10/02 10:30:14;;;;;;;;;2.00;2.00;;;;;;;;5041809;28;8871;-73
2021/10/02 10:33:00;;;;;;;;;2.75;2.75;;;;;;;;5061128;28;9687;-74
2021/10/02 10:35:32;;;;;;;;;2.50;2.00;;;;;;;;5059200;28;8898;-74
2021/10/02 10:38:01;;;;;;;;;3.50;2.75;;;;;;;;5062938;28;8869;-75
2021/10/02 10:40:30;;;;;;;;;2.50;2.50;;;;;;;;5063377;28;8880;-74
2021/10/02 10:42:57;;;;;;;;;2.25;2.00;;;;;;;;5059800;28;8966;-74
2021/10/02 10:45:25;;;;;;;;;1.75;1.75;;;;;;;;5063328;28;8848;-74
2021/10/02 10:47:53;;;;;;;;;1.00;1.00;;;;;;;;5060941;28;8852;-75
2021/10/02 10:50:21;;;;;;;;;3.75;2.00;;;;;;;;5045238;28;8844;-76
2021/10/02 10:52:48;;;;;;;;;1.00;1.00;;;;;;;;5060331;28;8868;-75
2021/10/02 10:55:18;;;;;;;;;1.75;1.75;;;;;;;;5062778;28;8882;-75
2021/10/02 10:57:49;;;;;;;;;2.00;2.00;;;;;;;;5062160;28;8888;-75
2021/10/02 11:00:19;;;;;;;;;1.50;1.50;;;;;;;;5060003;28;8872;-74
2021/10/02 11:02:52;;;;;;;;;3.00;2.00;;;;;;;;5062778;28;8852;-75
2021/10/02 11:05:48;;;;;;;;;4.50;2.00;;;;;;;;5062067;28;8868;-74
2021/10/02 11:08:19;;;;;;;;;2.00;2.00;;;;;;;;5062796;28;8878;-74
2021/10/02 11:10:50;;;;;;;;;2.00;2.00;;;;;;;;5062657;28;8868;-75
2021/10/02 11:13:19;;;;;;;;;1.50;1.50;;;;;;;;5062797;28;8864;-74
2021/10/02 11:15:48;;;;;;;;;1.00;1.00;;;;;;;;5061675;28;8858;-76
2021/10/02 11:18:43;;;;;;;;;2.00;1.00;;;;;;;;5062054;28;8860;-74
2021/10/02 11:21:12;;;;;;;;;1.60;0.40;;;;;;;;5062323;28;8887;-71
2021/10/02 11:24:11;;;;;;;;;2.00;2.00;;;;;;;;5062491;28;8902;-72
2021/10/02 11:26:58;;;;;;;;;3.00;1.40;;;;;;;;5050165;28;8864;-75
2021/10/02 11:29:31;;;;;;;;;0.00;0.00;;;;;;;;5058257;28;8884;-74
2021/10/02 11:32:20;;;;;;;;;1.40;1.40;;;;;;;;5060582;28;9619;-75
2021/10/02 11:35:20;;;;;;;;;1.00;1.00;;;;;;;;5066499;28;8894;-75
2021/10/02 11:37:52;;;;;;;;;5.00;2.00;;;;;;;;5067343;28;8864;-74
2021/10/02 11:40:45;;;;;;;;;1.00;1.00;;;;;;;;5066912;28;8864;-74
2021/10/02 11:43:33;;;;;;;;;1.00;1.00;;;;;;;;5066908;28;8860;-75
2021/10/02 11:46:04;;;;;;;;;1.00;1.00;;;;;;;;5061852;28;8902;-75
2021/10/02 11:48:40;;;;;;;;;3.20;1.00;;;;;;;;5048617;28;8936;-75
2021/10/02 11:51:26;;;;;;;;;1.40;1.00;;;;;;;;5063877;28;8888;-75
2021/10/02 11:53:55;;;;;;;;;2.20;2.20;;;;;;;;5066099;28;8899;-75
2021/10/02 11:56:24;;;;;;;;;0.00;0.00;;;;;;;;5064237;28;8868;-76
2021/10/02 11:58:55;;;;;;;;;0.00;0.00;;;;;;;;5064360;28;8990;-76
2021/10/02 12:01:24;;;;;;;;;1.60;0.00;;;;;;;;5061664;28;8832;-76
2021/10/02 12:04:01;;;;;;;;;2.00;2.00;;;;;;;;5065404;28;8860;-76
2021/10/02 12:06:28;;;;;;;;;0.40;0.40;;;;;;;;5064516;28;8888;-76
2021/10/02 12:08:56;;;;;;;;;1.00;1.00;;;;;;;;5065784;28;8852;-76
2021/10/02 12:11:24;;;;;;;;;2.40;2.40;;;;;;;;5047224;28;8888;-76
2021/10/02 12:13:56;;;;;;;;;0.40;0.40;;;;;;;;5066235;28;9679;-76
2021/10/02 12:16:26;;;;;;;;;2.60;0.80;;;;;;;;5061273;28;9605;-76
2021/10/02 12:18:57;;;;;;;;;1.00;1.00;;;;;;;;5064221;28;8844;-76
2021/10/02 12:21:42;;;;;;;;;1.00;1.00;;;;;;;;5065576;28;8841;-77
2021/10/02 12:24:13;;;;;;;;;1.60;1.60;;;;;;;;5064994;28;8884;-77
2021/10/02 12:26:51;;;;;;;;;1.00;1.00;;;;;;;;5058292;28;8900;-77
2021/10/02 12:29:21;;;;;;;;;1.00;1.00;;;;;;;;5065523;28;8833;-77
2021/10/02 12:31:57;;;;;;;;;0.60;0.60;;;;;;;;5052121;28;8960;-77
2021/10/02 12:34:26;;;;;;;;;1.60;1.60;;;;;;;;5063520;28;8995;-76
2021/10/02 12:36:56;;;;;;;;;2.00;1.00;;;;;;;;5062988;28;8853;-76
2021/10/02 12:39:37;;;;;;;;;1.00;1.00;;;;;;;;5069878;28;8856;-76
2021/10/02 12:42:06;;;;;;;;;1.80;1.00;;;;;;;;5065232;28;8971;-76
2021/10/02 12:44:38;;;;;;;;;1.00;1.00;;;;;;;;5064969;28;8864;-76
2021/10/02 12:47:07;;;;;;;;;1.60;1.60;;;;;;;;5047604;28;8844;-76
2021/10/02 12:49:43;;;;;;;;;0.00;0.00;;;;;;;;5064747;28;8868;-75
2021/10/02 12:52:11;;;;;;;;;2.60;1.20;;;;;;;;5064618;28;8867;-76
2021/10/02 12:54:40;;;;;;;;;2.00;0.80;;;;;;;;5045897;28;8885;-76
2021/10/02 12:57:11;;;;;;;;;1.00;1.00;;;;;;;;5065834;28;8890;-76
2021/10/02 12:59:48;;;;;;;;;1.80;0.80;;;;;;;;5065431;28;8840;-76
2021/10/02 13:02:19;;;;;;;;;1.60;1.00;;;;;;;;5063004;28;8829;-76
2021/10/02 13:04:46;;;;;;;;;2.00;1.00;;;;;;;;5064763;28;8840;-76
2021/10/02 13:07:23;;;;;;;;;2.00;0.80;;;;;;;;5061360;28;8844;-74
2021/10/02 13:10:15;;;;;;;;;3.00;1.00;;;;;;;;5063311;28;8878;-73
2021/10/02 13:12:45;;;;;;;;;2.80;2.40;;;;;;;;5048201;28;9686;-72
2021/10/02 13:15:25;;;;;;;;;3.80;1.80;;;;;;;;5047939;28;8987;-74
2021/10/02 13:18:03;;;;;;;;;0.00;0.00;;;;;;;;5056247;28;8930;-75
2021/10/02 13:20:33;;;;;;;;;4.40;2.00;;;;;;;;5057284;28;8888;-74
2021/10/02 13:23:07;;;;;;;;;2.60;2.60;;;;;;;;5059837;28;9478;-74
2021/10/02 13:25:39;;;;;;;;;4.20;4.20;;;;;;;;5061357;28;8865;-75
2021/10/02 13:28:07;;;;;;;;;1.60;1.20;;;;;;;;5064118;28;8904;-73
2021/10/02 13:30:36;;;;;;;;;1.00;1.00;;;;;;;;5061725;28;8772;-73
2021/10/02 13:33:06;;;;;;;;;1.60;1.60;;;;;;;;5060112;28;8911;-72
2021/10/02 13:35:38;;;;;;;;;1.20;1.20;;;;;;;;5061689;28;8910;-73
2021/10/02 13:38:07;;;;;;;;;2.00;2.00;;;;;;;;5039253;28;8870;-74
2021/10/02 13:40:36;;;;;;;;;3.00;3.00;;;;;;;;5061191;28;9538;-74
2021/10/02 13:43:05;;;;;;;;;3.00;1.80;;;;;;;;5061901;28;8861;-73
2021/10/02 13:45:36;;;;;;;;;2.00;2.00;;;;;;;;5058538;28;8859;-73
2021/10/02 13:48:06;;;;;;;;;2.25;2.25;;;;;;;;5044236;28;8841;-76
2021/10/02 13:50:34;;;;;;;;;2.00;2.00;;;;;;;;5060659;28;9505;-73
2021/10/02 13:53:02;;;;;;;;;3.80;2.40;;;;;;;;5060769;28;8880;-76
2021/10/02 13:55:30;;;;;;;;;3.25;2.25;;;;;;;;5059983;28;8852;-73
2021/10/02 13:57:58;;;;;;;;;2.00;2.00;;;;;;;;5063899;28;8895;-73
2021/10/02 14:00:26;;;;;;;;;3.50;2.25;;;;;;;;5062084;28;8764;-72
2021/10/02 14:02:55;;;;;;;;;2.75;2.75;;;;;;;;5063869;28;8876;-73
2021/10/02 14:05:23;;;;;;;;;3.25;3.25;;;;;;;;5064611;28;8882;-72
2021/10/02 14:07:52;;;;;;;;;3.50;3.50;;;;;;;;5063786;28;8898;-73
2021/10/02 14:10:20;;;;;;;;;2.00;2.00;;;;;;;;5065059;28;8864;-73
2021/10/02 14:12:48;;;;;;;;;4.00;4.00;;;;;;;;5062284;28;8967;-76
2021/10/02 14:15:16;;;;;;;;;2.25;2.25;;;;;;;;5063008;28;9487;-73
2021/10/02 14:17:43;;;;;;;;;3.00;3.00;;;;;;;;5060822;28;8864;-74
2021/10/02 14:20:14;;;;;;;;;3.00;3.00;;;;;;;;5061867;28;9665;-73
2021/10/02 14:22:43;;;;;;;;;4.25;4.25;;;;;;;;5062138;28;9699;-72
2021/10/02 14:25:12;;;;;;;;;3.25;3.25;;;;;;;;5062450;28;8919;-76
2021/10/02 14:27:39;;;;;;;;;3.00;3.00;;;;;;;;5062810;28;8855;-73
2021/10/02 14:30:08;;;;;;;;;3.50;3.50;;;;;;;;5061672;28;8929;-73
2021/10/02 14:32:35;;;;;;;;;7.00;3.50;;;;;;;;5059931;28;8868;-74
2021/10/02 14:35:03;;;;;;;;;4.50;4.50;;;;;;;;5061533;28;8872;-74
2021/10/02 14:37:32;;;;;;;;;3.75;3.75;;;;;;;;5063583;28;8875;-73
2021/10/02 14:39:59;;;;;;;;;2.75;2.75;;;;;;;;5044522;28;8874;-73
2021/10/02 14:42:27;;;;;;;;;1.25;1.25;;;;;;;;5062735;28;8890;-73
2021/10/02 14:44:55;;;;;;;;;2.25;2.25;;;;;;;;5064586;28;8848;-75
2021/10/02 14:47:22;;;;;;;;;3.00;3.00;;;;;;;;5063701;28;8918;-73
2021/10/02 14:49:50;;;;;;;;;4.25;3.50;;;;;;;;5064235;28;8880;-74
2021/10/02 14:52:18;;;;;;;;;3.00;3.00;;;;;;;;5061397;28;8888;-70
2021/10/02 14:54:47;;;;;;;;;5.25;5.25;;;;;;;;5063125;28;8849;-72
2021/10/02 14:57:15;;;;;;;;;3.50;3.00;;;;;;;;5062338;28;8937;-72
2021/10/02 14:59:44;;;;;;;;;3.75;3.75;;;;;;;;5063218;28;8878;-75
2021/10/02 15:02:16;;;;;;;;;9.25;9.25;;;;;;;;5062446;28;8836;-73
2021/10/02 15:04:45;;;;;;;;;3.75;3.75;;;;;;;;5058464;28;8856;-73
2021/10/02 15:07:13;;;;;;;;;6.00;6.00;;;;;;;;5062425;28;9687;-74
2021/10/02 15:09:42;;;;;;;;;3.00;3.00;;;;;;;;5061604;28;8864;-74
2021/10/02 15:12:11;;;;;;;;;4.00;4.00;;;;;;;;5063648;28;8852;-75
2021/10/02 15:14:38;;;;;;;;;3.50;3.00;;;;;;;;5061961;28;8914;-77
2021/10/02 15:17:06;;;;;;;;;2.75;2.75;;;;;;;;5045600;28;8876;-74
2021/10/02 15:19:34;;;;;;;;;5.00;5.00;;;;;;;;5062657;28;8871;-75
2021/10/02 15:22:04;;;;;;;;;3.50;3.50;;;;;;;;5059018;28;8872;-72
2021/10/02 15:24:36;;;;;;;;;4.00;3.00;;;;;;;;5062261;28;8902;-77
2021/10/02 15:27:08;;;;;;;;;3.00;3.00;;;;;;;;5060509;28;8884;-74
2021/10/02 15:29:38;;;;;;;;;3.00;2.75;;;;;;;;5062541;28;8857;-76
2021/10/02 15:32:05;;;;;;;;;6.00;5.50;;;;;;;;5041280;28;8817;-73
2021/10/02 15:34:34;;;;;;;;;1.00;1.00;;;;;;;;5063328;28;10031;-72
2021/10/02 15:37:02;;;;;;;;;3.00;3.00;;;;;;;;5059273;28;8872;-73
2021/10/02 15:39:30;;;;;;;;;3.25;3.25;;;;;;;;5062381;28;8921;-76
2021/10/02 15:41:58;;;;;;;;;2.50;2.50;;;;;;;;5062438;28;8855;-78
2021/10/02 15:44:28;;;;;;;;;2.25;2.25;;;;;;;;5060956;28;8887;-74
2021/10/02 15:46:57;;;;;;;;;5.00;5.00;;;;;;;;5057795;28;8868;-77
2021/10/02 15:49:26;;;;;;;;;2.50;2.50;;;;;;;;5058702;28;8983;-70
2021/10/02 15:51:54;;;;;;;;;4.00;4.00;;;;;;;;5056816;28;8860;-71